createdAt,value
2023-01-15T00:02:20.624Z,8.83
2023-01-15T00:04:51.851Z,9.01
2023-01-15T00:07:20.616Z,8.97
2023-01-15T00:09:50.838Z,8.84
2023-01-15T00:12:19.238Z,8.91
2023-01-15T00:14:47.618Z,8.97
2023-01-15T00:17:16.070Z,8.91
2023-01-15T00:19:44.616Z,9.02
2023-01-15T00:22:13.021Z,9.05
2023-01-15T00:25:00.338Z,8.93
2023-01-15T00:27:40.519Z,8.76
2023-01-15T00:30:13.921Z,8.75
2023-01-15T00:32:43.619Z,8.81
2023-01-15T00:35:20.771Z,8.93
2023-01-15T00:37:49.935Z,8.90
2023-01-15T00:40:20.404Z,8.72
2023-01-15T00:42:54.400Z,8.82
2023-01-15T00:45:23.912Z,8.91
2023-01-15T00:47:52.650Z,8.87
2023-01-15T00:50:21.734Z,8.95
2023-01-15T00:52:50.241Z,8.96
2023-01-15T00:55:18.652Z,8.96
2023-01-15T00:57:47.345Z,9.03
2023-01-15T01:00:16.372Z,9.06
2023-01-15T01:02:44.877Z,9.13
2023-01-15T01:05:13.847Z,9.13
2023-01-15T01:07:42.317Z,9.00
2023-01-15T01:10:11.074Z,9.02
2023-01-15T01:12:39.790Z,9.12
2023-01-15T01:15:10.252Z,9.20
2023-01-15T01:17:39.302Z,9.26
2023-01-15T01:20:08.315Z,9.18
2023-01-15T01:22:40.480Z,9.21
2023-01-15T01:25:09.186Z,9.19
2023-01-15T01:27:37.361Z,9.36
2023-01-15T01:30:06.373Z,9.37
2023-01-15T01:32:34.652Z,9.45
2023-01-15T01:35:03.076Z,9.53
2023-01-15T01:37:32.248Z,9.58
2023-01-15T01:40:01.697Z,9.46
2023-01-15T01:42:32.401Z,9.59
2023-01-15T01:45:09.936Z,9.56
2023-01-15T01:47:39.046Z,9.54
2023-01-15T01:50:12.943Z,9.58
2023-01-15T01:52:56.637Z,9.61
2023-01-15T01:55:27.103Z,9.68
2023-01-15T01:57:59.523Z,9.62
2023-01-15T02:00:30.318Z,9.64
2023-01-15T02:03:00.032Z,9.64
2023-01-15T02:05:32.919Z,9.68
2023-01-15T02:08:01.434Z,9.60
2023-01-15T02:10:29.822Z,9.66
2023-01-15T02:13:04.376Z,9.74
2023-01-15T02:15:37.662Z,9.74
2023-01-15T02:18:30.116Z,9.72
2023-01-15T02:21:11.463Z,9.58
2023-01-15T02:23:45.658Z,9.66
2023-01-15T02:26:42.896Z,9.71
2023-01-15T02:29:17.937Z,9.69
2023-01-15T02:31:51.675Z,9.78
2023-01-15T02:34:26.200Z,9.77
2023-01-15T02:37:33.730Z,9.77
2023-01-15T02:40:04.849Z,9.77
2023-01-15T02:42:34.995Z,9.83
2023-01-15T02:45:06.184Z,9.80
2023-01-15T02:47:38.749Z,9.75
2023-01-15T02:50:11.301Z,9.73
2023-01-15T02:52:45.529Z,9.72
2023-01-15T02:55:22.338Z,9.66
2023-01-15T02:57:53.832Z,9.69
2023-01-15T03:00:26.082Z,9.53
2023-01-15T03:03:10.235Z,9.61
2023-01-15T03:05:53.286Z,9.68
2023-01-15T03:08:21.778Z,9.53
2023-01-15T03:11:09.766Z,9.67
2023-01-15T03:13:48.673Z,9.61
2023-01-15T03:16:35.719Z,9.62
2023-01-15T03:19:20.888Z,9.63
2023-01-15T03:21:56.976Z,9.63
2023-01-15T03:24:33.951Z,9.55
2023-01-15T03:27:02.618Z,9.72
2023-01-15T03:29:42.524Z,9.75
2023-01-15T03:32:11.085Z,9.71
2023-01-15T03:34:50.270Z,9.56
2023-01-15T03:37:21.302Z,9.69
2023-01-15T03:39:50.626Z,9.81
2023-01-15T03:42:18.871Z,9.74
2023-01-15T03:45:01.001Z,9.66
2023-01-15T03:47:53.316Z,9.67
2023-01-15T03:50:42.232Z,9.68
2023-01-15T03:53:32.407Z,9.66
2023-01-15T03:56:09.793Z,9.53
2023-01-15T03:58:46.415Z,9.79
2023-01-15T04:01:19.211Z,9.77
2023-01-15T04:03:50.283Z,9.92
2023-01-15T04:06:19.245Z,9.83
2023-01-15T04:08:48.360Z,9.75
2023-01-15T04:11:24.707Z,9.89
2023-01-15T04:13:54.723Z,9.98
2023-01-15T04:16:28.893Z,9.94
2023-01-15T04:18:57.452Z,10.01
2023-01-15T04:21:25.706Z,10.08
2023-01-15T04:23:54.031Z,9.90
2023-01-15T04:26:22.609Z,9.82
2023-01-15T04:28:52.287Z,9.79
2023-01-15T04:31:21.047Z,9.81
2023-01-15T04:33:49.361Z,10.01
2023-01-15T04:36:17.628Z,10.04
2023-01-15T04:38:46.078Z,9.98
2023-01-15T04:41:33.090Z,9.93
2023-01-15T04:44:07.619Z,9.85
2023-01-15T04:46:39.587Z,9.87
2023-01-15T04:49:12.622Z,9.98
2023-01-15T04:51:41.292Z,10.06
2023-01-15T04:54:10.987Z,10.01
2023-01-15T04:56:42.179Z,10.16
2023-01-15T04:59:11.727Z,10.16
2023-01-15T05:01:42.787Z,10.11
2023-01-15T05:04:14.895Z,10.18
2023-01-15T05:06:43.399Z,10.26
2023-01-15T05:09:11.972Z,10.41
2023-01-15T05:11:41.022Z,10.38
2023-01-15T05:14:09.522Z,10.37
2023-01-15T05:16:38.889Z,10.37
2023-01-15T05:19:10.330Z,10.32
2023-01-15T05:21:42.540Z,10.49
2023-01-15T05:24:14.939Z,10.56
2023-01-15T05:26:44.345Z,10.51
2023-01-15T05:29:13.700Z,10.33
2023-01-15T05:31:45.528Z,10.42
2023-01-15T05:34:14.221Z,10.33
2023-01-15T05:36:42.751Z,10.52
2023-01-15T05:39:11.502Z,10.50
2023-01-15T05:41:49.422Z,10.43
2023-01-15T05:44:29.671Z,10.52
2023-01-15T05:47:02.748Z,10.40
2023-01-15T05:49:31.620Z,10.42
2023-01-15T05:52:01.896Z,10.41
2023-01-15T05:54:33.750Z,10.38
2023-01-15T05:57:03.157Z,10.38
2023-01-15T05:59:33.739Z,10.28
2023-01-15T06:02:02.381Z,10.36
2023-01-15T06:04:30.962Z,10.25
2023-01-15T06:06:59.761Z,10.33
2023-01-15T06:09:29.873Z,10.35
2023-01-15T06:11:59.249Z,10.22
2023-01-15T06:14:28.606Z,10.26
2023-01-15T06:16:57.007Z,10.26
2023-01-15T06:19:25.352Z,10.08
2023-01-15T06:21:54.025Z,10.37
2023-01-15T06:24:23.431Z,10.23
2023-01-15T06:26:52.675Z,10.17
2023-01-15T06:29:21.066Z,10.18
2023-01-15T06:31:49.817Z,10.22
2023-01-15T06:34:18.310Z,10.14
2023-01-15T06:36:46.624Z,10.10
2023-01-15T06:39:15.083Z,10.14
2023-01-15T06:42:02.081Z,10.11
2023-01-15T06:44:49.338Z,9.96
2023-01-15T06:47:22.283Z,10.02
2023-01-15T06:49:56.435Z,10.13
2023-01-15T06:52:26.903Z,10.10
2023-01-15T06:54:56.169Z,10.12
2023-01-15T06:57:24.897Z,10.20
2023-01-15T06:59:54.144Z,10.31
2023-01-15T07:02:22.962Z,10.13
2023-01-15T07:04:52.294Z,10.18
2023-01-15T07:07:22.894Z,10.17
2023-01-15T07:09:51.549Z,10.26
2023-01-15T07:12:20.703Z,10.19
2023-01-15T07:14:49.121Z,10.20
2023-01-15T07:17:17.479Z,10.38
2023-01-15T07:19:47.103Z,10.27
2023-01-15T07:22:15.852Z,10.30
2023-01-15T07:24:45.067Z,10.36
2023-01-15T07:27:14.244Z,10.39
2023-01-15T07:29:42.520Z,10.35
2023-01-15T07:32:12.556Z,10.37
2023-01-15T07:34:43.997Z,10.33
2023-01-15T07:37:12.575Z,10.36
2023-01-15T07:39:41.422Z,10.36
2023-01-15T07:42:46.319Z,10.43
2023-01-15T07:45:33.398Z,10.32
2023-01-15T07:48:20.330Z,10.28
2023-01-15T07:50:48.629Z,10.40
2023-01-15T07:53:19.975Z,10.56
2023-01-15T07:55:48.965Z,10.68
2023-01-15T07:58:17.300Z,10.77
2023-01-15T08:00:45.569Z,10.69
2023-01-15T08:03:15.269Z,10.54
2023-01-15T08:05:43.613Z,10.57
2023-01-15T08:08:18.565Z,10.75
2023-01-15T08:11:05.578Z,10.83
2023-01-15T08:13:52.426Z,10.68
2023-01-15T08:16:20.949Z,10.67
2023-01-15T08:18:50.055Z,10.65
2023-01-15T08:21:18.480Z,10.66
2023-01-15T08:23:47.865Z,10.68
2023-01-15T08:26:16.845Z,10.85
2023-01-15T08:28:45.062Z,10.76
2023-01-15T08:31:16.537Z,10.71
2023-01-15T08:33:44.833Z,10.80
2023-01-15T08:36:13.254Z,10.88
2023-01-15T08:38:41.534Z,10.89
2023-01-15T08:41:10.072Z,10.86
2023-01-15T08:43:38.544Z,10.95
2023-01-15T08:46:07.116Z,10.98
2023-01-15T08:48:38.211Z,11.09
2023-01-15T08:51:08.962Z,11.15
2023-01-15T08:53:41.495Z,11.04
2023-01-15T08:56:16.828Z,10.98
2023-01-15T08:58:46.171Z,11.09
2023-01-15T09:01:16.348Z,11.06
2023-01-15T09:03:44.991Z,11.08
2023-01-15T09:06:13.978Z,11.03
2023-01-15T09:08:42.641Z,11.07
2023-01-15T09:11:13.286Z,10.92
2023-01-15T09:13:44.239Z,10.94
2023-01-15T09:16:13.299Z,11.02
2023-01-15T09:18:41.800Z,10.99
2023-01-15T09:21:10.841Z,11.15
2023-01-15T09:23:39.359Z,11.03
2023-01-15T09:26:08.335Z,11.00
2023-01-15T09:28:36.651Z,11.01
2023-01-15T09:31:04.963Z,10.96
2023-01-15T09:33:33.828Z,10.92
2023-01-15T09:36:02.139Z,10.89
2023-01-15T09:38:30.493Z,10.99
2023-01-15T09:41:07.677Z,11.18
2023-01-15T09:44:01.022Z,11.06
2023-01-15T09:46:40.643Z,10.95
2023-01-15T09:49:27.122Z,10.80
2023-01-15T09:52:19.890Z,10.76
2023-01-15T09:55:00.835Z,10.82
2023-01-15T09:57:30.831Z,10.59
2023-01-15T10:00:03.180Z,10.93
2023-01-15T10:02:40.524Z,10.91
2023-01-15T10:05:20.109Z,10.71
2023-01-15T10:07:59.292Z,10.51
2023-01-15T10:10:34.271Z,10.52
2023-01-15T10:13:15.396Z,10.49
2023-01-15T10:15:48.426Z,10.29
2023-01-15T10:18:25.119Z,10.22
2023-01-15T10:21:18.433Z,10.05
2023-01-15T10:23:58.514Z,9.89
2023-01-15T10:26:40.869Z,9.88
2023-01-15T10:29:42.553Z,9.92
2023-01-15T10:33:03.322Z,9.86
2023-01-15T10:35:49.833Z,9.87
2023-01-15T10:38:30.223Z,9.97
2023-01-15T10:41:21.128Z,10.04
2023-01-15T10:43:59.654Z,9.95
2023-01-15T10:46:33.865Z,9.97
2023-01-15T10:49:20.464Z,10.08
2023-01-15T10:51:56.837Z,10.08
2023-01-15T10:54:49.889Z,10.12
2023-01-15T10:58:11.296Z,10.06
2023-01-15T11:00:43.639Z,10.04
2023-01-15T11:03:19.897Z,10.13
2023-01-15T11:05:48.080Z,10.15
2023-01-15T11:09:08.691Z,10.14
2023-01-15T11:11:54.804Z,10.13
2023-01-15T11:15:31.238Z,10.15
2023-01-15T11:18:30.552Z,10.07
2023-01-15T11:20:59.112Z,10.15
2023-01-15T11:23:27.711Z,10.28
2023-01-15T11:25:58.600Z,10.34
2023-01-15T11:28:43.435Z,10.38
2023-01-15T11:31:13.208Z,10.27
2023-01-15T11:33:46.426Z,10.31
2023-01-15T11:36:24.691Z,10.39
2023-01-15T11:38:53.610Z,10.29
2023-01-15T11:41:50.983Z,10.24
2023-01-15T11:44:41.233Z,10.19
2023-01-15T11:47:33.400Z,10.27
2023-01-15T11:50:20.692Z,10.23
2023-01-15T11:52:56.422Z,10.16
2023-01-15T11:55:27.443Z,10.15
2023-01-15T11:57:57.644Z,10.32
2023-01-15T12:00:30.717Z,10.31
2023-01-15T12:03:13.243Z,10.25
2023-01-15T12:05:50.399Z,10.18
2023-01-15T12:08:52.419Z,10.29
2023-01-15T12:12:08.466Z,10.03
2023-01-15T12:14:53.175Z,9.84
2023-01-15T12:17:39.599Z,9.64
2023-01-15T12:20:23.466Z,9.75
2023-01-15T12:23:13.153Z,9.91
2023-01-15T12:25:56.883Z,9.97
2023-01-15T12:28:32.341Z,9.84
2023-01-15T12:31:11.991Z,9.88
2023-01-15T12:33:53.516Z,9.86
2023-01-15T12:36:38.473Z,9.72
2023-01-15T12:39:26.846Z,9.57
2023-01-15T12:42:18.258Z,9.61
2023-01-15T12:45:08.201Z,9.54
2023-01-15T12:47:41.239Z,9.60
2023-01-15T12:50:29.478Z,9.74
2023-01-15T12:53:06.280Z,9.63
2023-01-15T12:55:40.438Z,9.74
2023-01-15T12:58:19.531Z,9.64
2023-01-15T13:00:49.951Z,9.69
2023-01-15T13:03:27.406Z,9.73
2023-01-15T13:06:02.646Z,9.51
2023-01-15T13:08:39.486Z,9.57
2023-01-15T13:11:12.636Z,9.53
2023-01-15T13:13:58.420Z,9.30
2023-01-15T13:16:45.599Z,9.36
2023-01-15T13:19:40.226Z,9.08
2023-01-15T13:22:17.886Z,9.02
2023-01-15T13:25:29.646Z,9.05
2023-01-15T13:28:08.990Z,8.95
2023-01-15T13:30:54.170Z,9.06
2023-01-15T13:33:46.893Z,8.94
2023-01-15T13:36:29.084Z,9.02
2023-01-15T13:39:03.753Z,9.13
2023-01-15T13:41:53.183Z,9.24
2023-01-15T13:44:29.695Z,9.09
2023-01-15T13:47:11.767Z,9.10
2023-01-15T13:49:49.146Z,9.06
2023-01-15T13:52:32.487Z,9.20
2023-01-15T13:55:22.807Z,8.97
2023-01-15T13:57:51.367Z,9.03
2023-01-15T14:00:36.510Z,9.01
2023-01-15T14:03:43.414Z,9.11
2023-01-15T14:06:11.896Z,9.03
2023-01-15T14:08:44.059Z,9.14
2023-01-15T14:11:37.560Z,9.11
2023-01-15T14:14:35.227Z,8.99
2023-01-15T14:17:41.293Z,8.87
2023-01-15T14:20:34.628Z,8.76
2023-01-15T14:23:30.224Z,8.79
2023-01-15T14:26:19.325Z,8.65
2023-01-15T14:29:29.667Z,8.59
2023-01-15T14:32:22.479Z,8.55
2023-01-15T14:35:00.578Z,8.51
2023-01-15T14:37:40.464Z,8.56
2023-01-15T14:40:20.241Z,8.64
2023-01-15T14:43:05.070Z,8.74
2023-01-15T14:45:36.713Z,8.66
2023-01-15T14:48:26.680Z,8.76
2023-01-15T14:51:08.083Z,8.66
2023-01-15T14:53:45.335Z,8.72
2023-01-15T14:56:14.373Z,8.75
2023-01-15T14:59:00.039Z,8.76
2023-01-15T15:01:52.708Z,8.70
2023-01-15T15:07:41.669Z,8.24
2023-01-15T15:10:31.921Z,8.16
2023-01-15T15:13:13.954Z,8.35
2023-01-15T15:16:13.267Z,8.39
2023-01-15T15:18:49.113Z,8.30
2023-01-15T15:21:26.524Z,8.41
2023-01-15T15:24:07.991Z,8.30
2023-01-15T15:26:38.356Z,8.33
2023-01-15T15:29:11.411Z,8.45
2023-01-15T15:31:45.729Z,8.48
2023-01-15T15:34:41.057Z,8.38
2023-01-15T15:37:19.212Z,8.28
2023-01-15T15:40:00.746Z,8.21
2023-01-15T15:42:53.840Z,8.21
2023-01-15T15:45:47.318Z,8.19
2023-01-15T15:48:39.078Z,8.15
2023-01-15T15:51:35.211Z,8.00
2023-01-15T15:54:31.202Z,8.15
2023-01-15T15:57:14.413Z,8.11
2023-01-15T15:59:50.909Z,8.23
2023-01-15T16:02:26.395Z,8.19
2023-01-15T16:04:59.090Z,8.20
2023-01-15T16:07:33.814Z,8.20
2023-01-15T16:10:35.397Z,8.19
2023-01-15T16:13:06.954Z,8.09
2023-01-15T16:15:40.111Z,7.99
2023-01-15T16:18:29.665Z,7.92
2023-01-15T16:20:58.858Z,7.76
2023-01-15T16:23:30.144Z,7.98
2023-01-15T16:26:30.702Z,7.99
2023-01-15T16:29:02.889Z,7.75
2023-01-15T16:31:38.453Z,7.84
2023-01-15T16:34:08.167Z,7.70
2023-01-15T16:36:42.807Z,7.65
2023-01-15T16:39:35.764Z,7.85
2023-01-15T16:42:05.303Z,7.68
2023-01-15T16:45:04.875Z,7.46
2023-01-15T16:47:35.502Z,7.62
2023-01-15T16:50:22.686Z,7.59
2023-01-15T16:52:54.166Z,7.46
2023-01-15T16:55:36.920Z,7.49
2023-01-15T16:58:17.285Z,7.40
2023-01-15T17:00:48.223Z,7.54
2023-01-15T17:03:25.321Z,7.51
2023-01-15T17:06:12.413Z,7.54
2023-01-15T17:08:47.628Z,7.42
2023-01-15T17:11:30.955Z,7.49
2023-01-15T17:14:22.999Z,7.36
2023-01-15T17:17:18.861Z,7.32
2023-01-15T17:19:47.292Z,7.35
2023-01-15T17:22:24.835Z,7.38
2023-01-15T17:25:25.312Z,7.48
2023-01-15T17:27:57.507Z,7.53
2023-01-15T17:30:31.498Z,7.47
2023-01-15T17:33:20.837Z,7.66
2023-01-15T17:35:49.768Z,7.44
2023-01-15T17:38:19.172Z,7.68
2023-01-15T17:40:51.049Z,7.73
2023-01-15T17:43:19.753Z,7.85
2023-01-15T17:45:48.339Z,7.73
2023-01-15T17:48:21.265Z,7.75
2023-01-15T17:50:49.459Z,7.69
2023-01-15T17:53:21.116Z,7.54
2023-01-15T17:56:08.455Z,7.63
2023-01-15T17:58:55.498Z,7.62
2023-01-15T18:01:45.055Z,7.59
2023-01-15T18:04:42.362Z,7.16
2023-01-15T18:07:12.490Z,7.14
2023-01-15T18:09:42.847Z,7.40
2023-01-15T18:12:11.384Z,7.22
2023-01-15T18:14:40.138Z,7.37
2023-01-15T18:17:09.548Z,7.52
2023-01-15T18:19:43.356Z,7.28
2023-01-15T18:22:14.961Z,7.20
2023-01-15T18:24:45.247Z,7.31
2023-01-15T18:27:15.052Z,7.36
2023-01-15T18:30:14.249Z,7.39
2023-01-15T18:32:46.913Z,7.36
2023-01-15T18:35:19.824Z,7.26
2023-01-15T18:38:03.049Z,7.29
2023-01-15T18:40:37.583Z,7.41
2023-01-15T18:43:28.148Z,7.31
2023-01-15T18:46:17.089Z,7.20
2023-01-15T18:49:06.560Z,7.15
2023-01-15T18:51:41.315Z,7.04
2023-01-15T18:54:13.335Z,7.21
2023-01-15T18:56:46.670Z,7.07
2023-01-15T18:59:15.835Z,7.03
2023-01-15T19:01:44.208Z,7.08
2023-01-15T19:04:12.585Z,6.94
2023-01-15T19:06:41.308Z,6.93
2023-01-15T19:09:14.154Z,6.99
2023-01-15T19:11:44.130Z,7.08
2023-01-15T19:14:31.448Z,7.11
2023-01-15T19:17:18.704Z,6.90
2023-01-15T19:19:47.111Z,7.14
2023-01-15T19:22:33.944Z,6.91
2023-01-15T19:25:02.567Z,6.82
2023-01-15T19:27:31.279Z,6.80
2023-01-15T19:30:00.583Z,6.85
2023-01-15T19:32:29.130Z,6.69
2023-01-15T19:34:58.481Z,6.77
2023-01-15T19:37:28.332Z,6.86
2023-01-15T19:39:56.819Z,6.78
2023-01-15T19:42:44.818Z,6.70
2023-01-15T19:45:32.201Z,6.40
2023-01-15T19:48:19.539Z,6.56
2023-01-15T19:50:48.160Z,6.53
2023-01-15T19:53:19.908Z,6.27
2023-01-15T19:55:48.828Z,6.44
2023-01-15T19:58:17.464Z,6.57
2023-01-15T20:00:50.539Z,6.50
2023-01-15T20:03:28.840Z,6.62
2023-01-15T20:05:58.291Z,6.56
2023-01-15T20:08:27.749Z,6.51
2023-01-15T20:10:56.731Z,6.59
2023-01-15T20:13:43.662Z,6.55
2023-01-15T20:16:15.555Z,6.56
2023-01-15T20:18:44.398Z,6.65
2023-01-15T20:21:14.805Z,6.74
2023-01-15T20:23:46.616Z,6.62
2023-01-15T20:26:15.722Z,6.69
2023-01-15T20:28:47.843Z,6.59
2023-01-15T20:31:19.565Z,6.62
2023-01-15T20:33:48.153Z,6.45
2023-01-15T20:36:16.863Z,6.66
2023-01-15T20:38:49.030Z,6.49
2023-01-15T20:41:38.365Z,6.55
2023-01-15T20:44:25.704Z,6.18
2023-01-15T20:46:54.547Z,6.32
2023-01-15T20:49:29.045Z,6.48
2023-01-15T20:51:58.283Z,6.50
2023-01-15T20:54:26.876Z,6.46
2023-01-15T20:56:55.485Z,6.41
2023-01-15T20:59:23.926Z,6.45
2023-01-15T21:01:54.819Z,6.54
2023-01-15T21:04:24.758Z,6.45
2023-01-15T21:06:54.819Z,6.34
2023-01-15T21:09:22.980Z,6.18
2023-01-15T21:11:51.596Z,6.20
2023-01-15T21:14:20.085Z,6.29
2023-01-15T21:16:51.944Z,6.34
2023-01-15T21:19:21.602Z,6.40
2023-01-15T21:21:50.325Z,6.32
2023-01-15T21:24:19.405Z,6.33
2023-01-15T21:26:49.044Z,6.44
2023-01-15T21:29:17.752Z,6.36
2023-01-15T21:31:46.466Z,6.36
2023-01-15T21:34:15.917Z,6.24
2023-01-15T21:36:47.741Z,6.31
2023-01-15T21:39:18.791Z,6.38
2023-01-15T21:42:09.016Z,6.28
2023-01-15T21:44:45.111Z,6.09
2023-01-15T21:47:16.390Z,5.97
2023-01-15T21:49:46.328Z,5.76
2023-01-15T21:52:17.953Z,5.94
2023-01-15T21:54:50.373Z,6.08
2023-01-15T21:57:22.709Z,6.09
2023-01-15T21:59:51.704Z,5.99
2023-01-15T22:02:22.239Z,6.06
2023-01-15T22:04:50.756Z,5.98
2023-01-15T22:07:19.192Z,6.05
2023-01-15T22:09:47.739Z,6.04
2023-01-15T22:12:16.137Z,6.12
2023-01-15T22:14:44.731Z,5.92
2023-01-15T22:17:13.523Z,5.97
2023-01-15T22:19:42.245Z,6.15
2023-01-15T22:22:11.737Z,6.14
2023-01-15T22:24:41.406Z,5.79
2023-01-15T22:27:14.504Z,5.82
2023-01-15T22:29:44.156Z,5.89
2023-01-15T22:32:15.354Z,5.93
2023-01-15T22:34:44.022Z,5.84
2023-01-15T22:37:15.706Z,5.87
2023-01-15T22:39:44.222Z,6.01
2023-01-15T22:42:24.644Z,6.00
2023-01-15T22:44:53.544Z,6.04
2023-01-15T22:47:23.316Z,5.92
2023-01-15T22:49:51.986Z,5.96
2023-01-15T22:52:21.634Z,5.95
2023-01-15T22:54:50.338Z,5.85
2023-01-15T22:57:18.942Z,5.99
2023-01-15T22:59:47.423Z,6.01
2023-01-15T23:02:16.104Z,5.87
2023-01-15T23:04:44.880Z,5.77
2023-01-15T23:07:13.334Z,5.86
2023-01-15T23:09:41.903Z,5.97
2023-01-15T23:12:10.221Z,5.77
2023-01-15T23:14:39.077Z,5.83
2023-01-15T23:17:07.388Z,5.78
2023-01-15T23:19:35.869Z,5.93
2023-01-15T23:22:05.386Z,6.08
2023-01-15T23:24:33.825Z,5.78
2023-01-15T23:27:02.323Z,5.92
2023-01-15T23:29:30.685Z,6.02
2023-01-15T23:31:58.804Z,5.85
2023-01-15T23:34:27.300Z,6.00
2023-01-15T23:36:55.754Z,6.04
2023-01-15T23:39:24.341Z,5.67
2023-01-15T23:42:11.093Z,5.68
2023-01-15T23:44:58.342Z,5.73
2023-01-15T23:47:26.606Z,5.81
2023-01-15T23:49:54.931Z,5.83
2023-01-15T23:52:23.196Z,5.87
2023-01-15T23:54:51.564Z,5.94
2023-01-15T23:57:19.787Z,5.86
2023-01-15T23:59:48.740Z,5.77
